Time;durP1;ratioP1;P1;durP2;ratioP2;P2;SDS_P1;SDS_P2;PMS_P1;PMS_P2;Temp;Humidity;BMP_temperature;BMP_pressure;BME280_temperature;BME280_humidity;BME280_pressure;Samples;Min_cycle;Max_cycle;Signal;HPM_P1;HPM_P2
2022/07/01 08:39:34;;;;;;;4.30;1.30;;;17.20;96.10;;;;;;5055807;28;20438;-47
2022/07/01 08:42:01;;;;;;;7.10;1.38;;;16.90;95.90;;;;;;5052292;28;20108;-51
2022/07/01 08:44:28;;;;;;;3.83;1.23;;;16.70;96.00;;;;;;5049487;28;20037;-50
2022/07/01 08:46:55;;;;;;;4.55;1.25;;;16.70;95.70;;;;;;5050136;28;20049;-56
2022/07/01 08:49:22;;;;;;;3.08;1.13;;;16.80;96.10;;;;;;5048955;28;20037;-54
2022/07/01 08:51:49;;;;;;;2.83;1.20;;;16.90;96.30;;;;;;5048248;28;20037;-56
2022/07/01 08:54:15;;;;;;;3.70;1.10;;;17.10;95.60;;;;;;5046990;28;20073;-51
2022/07/01 08:56:43;;;;;;;5.15;1.25;;;17.30;95.40;;;;;;5053733;28;20044;-52
2022/07/01 08:59:10;;;;;;;2.72;1.10;;;17.50;95.10;;;;;;5051403;28;20079;-49
2022/07/01 09:01:37;;;;;;;2.97;1.10;;;17.70;94.80;;;;;;5048181;28;20445;-51
2022/07/01 09:04:04;;;;;;;6.30;1.17;;;18.00;94.00;;;;;;5048922;28;20119;-51
2022/07/01 09:06:31;;;;;;;4.50;1.15;;;18.10;94.10;;;;;;5048218;28;20025;-54
2022/07/01 09:08:58;;;;;;;4.60;1.13;;;18.30;94.00;;;;;;5048659;28;20049;-57
2022/07/01 09:11:24;;;;;;;4.85;1.10;;;18.30;92.50;;;;;;5049094;28;20041;-54
2022/07/01 09:13:51;;;;;;;3.47;1.02;;;18.20;93.00;;;;;;5041631;28;20041;-55
2022/07/01 09:16:18;;;;;;;4.78;1.30;;;18.40;93.60;;;;;;5046906;28;20052;-52
2022/07/01 09:18:45;;;;;;;6.55;1.30;;;18.50;93.00;;;;;;5048760;28;20045;-56
2022/07/01 09:21:13;;;;;;;5.90;1.45;;;18.50;92.40;;;;;;5044143;28;20127;-51
2022/07/01 09:23:39;;;;;;;3.97;1.00;;;18.50;92.30;;;;;;5054325;28;20049;-53
2022/07/01 09:26:06;;;;;;;2.95;1.10;;;18.50;91.70;;;;;;5048563;28;20064;-55
2022/07/01 09:28:33;;;;;;;3.45;1.00;;;18.50;91.40;;;;;;5049294;28;20088;-51
2022/07/01 09:31:00;;;;;;;2.85;1.00;;;18.60;91.60;;;;;;5048472;28;20056;-55
2022/07/01 09:33:27;;;;;;;4.50;1.05;;;18.70;92.30;;;;;;5048662;28;20057;-51
2022/07/01 09:35:54;;;;;;;3.28;1.20;;;18.90;91.40;;;;;;5046950;28;20048;-53
2022/07/01 09:38:21;;;;;;;2.63;1.10;;;19.00;91.50;;;;;;5048201;28;20045;-52
2022/07/01 09:40:58;;;;;;;2.97;1.02;;;19.10;90.70;;;;;;5042528;28;20041;-53
2022/07/01 09:43:25;;;;;;;4.22;1.08;;;19.20;90.50;;;;;;5040818;28;20546;-53
2022/07/01 09:45:52;;;;;;;4.57;1.00;;;19.30;90.10;;;;;;5043399;28;20041;-52
2022/07/01 09:48:18;;;;;;;5.22;1.02;;;19.30;89.80;;;;;;5047721;28;20496;-50
2022/07/01 09:50:45;;;;;;;2.92;1.00;;;19.20;90.50;;;;;;5035642;28;20045;-51
2022/07/01 09:53:12;;;;;;;3.78;1.00;;;19.20;90.20;;;;;;5034767;28;20048;-53
2022/07/01 09:55:39;;;;;;;6.20;1.08;;;19.20;90.00;;;;;;5033378;28;20045;-54
2022/07/01 09:58:06;;;;;;;4.15;1.30;;;19.10;89.70;;;;;;5029378;28;20041;-52
2022/07/01 10:00:33;;;;;;;3.53;1.35;;;19.00;90.40;;;;;;5033304;28;20051;-46
2022/07/01 10:03:00;;;;;;;4.07;1.30;;;19.00;90.20;;;;;;5034442;28;20053;-51
2022/07/01 10:05:27;;;;;;;5.47;1.25;;;18.90;90.60;;;;;;5030511;28;20041;-50
2022/07/01 10:07:54;;;;;;;3.65;1.23;;;18.90;90.40;;;;;;5032476;28;20037;-51
2022/07/01 10:10:21;;;;;;;3.90;1.40;;;18.80;90.80;;;;;;5033836;28;20084;-51
2022/07/01 10:12:48;;;;;;;5.35;1.20;;;18.90;91.00;;;;;;5038190;28;20476;-48
2022/07/01 10:15:14;;;;;;;2.83;0.90;;;18.90;90.50;;;;;;5034374;28;20594;-56
2022/07/01 10:17:41;;;;;;;4.15;1.40;;;18.80;90.10;;;;;;5031333;28;20052;-55
2022/07/01 10:20:08;;;;;;;3.30;1.20;;;18.90;90.30;;;;;;5034890;28;20052;-51
2022/07/01 10:22:35;;;;;;;4.65;1.10;;;18.90;90.00;;;;;;5034879;28;20037;-56
2022/07/01 10:25:01;;;;;;;4.20;1.38;;;19.00;90.30;;;;;;5032477;28;20059;-54
2022/07/01 10:27:28;;;;;;;2.28;0.93;;;19.00;88.80;;;;;;5033943;28;20481;-48
2022/07/01 10:29:55;;;;;;;5.55;1.23;;;19.10;87.80;;;;;;5028772;28;20045;-48
2022/07/01 10:32:22;;;;;;;5.80;1.17;;;19.10;89.60;;;;;;5030017;28;20315;-58
2022/07/01 10:35:08;;;;;;;3.92;1.20;;;19.10;87.60;;;;;;5030351;28;20616;-48
2022/07/01 10:37:35;;;;;;;8.10;1.15;;;19.00;89.00;;;;;;5034012;28;20095;-51
2022/07/01 10:40:02;;;;;;;4.00;1.02;;;19.00;89.50;;;;;;5034079;28;20053;-55
2022/07/01 10:42:29;;;;;;;5.00;1.27;;;19.00;88.50;;;;;;5034332;28;20100;-57
2022/07/01 10:44:57;;;;;;;3.05;0.93;;;19.00;88.50;;;;;;5034519;28;20060;-49
2022/07/01 10:47:24;;;;;;;4.72;1.10;;;19.10;89.20;;;;;;5033928;28;20049;-49
2022/07/01 10:49:51;;;;;;;2.80;0.82;;;19.20;86.80;;;;;;5028899;28;20037;-54
2022/07/01 10:52:18;;;;;;;4.35;0.90;;;19.20;86.60;;;;;;5034496;28;20072;-50
2022/07/01 10:54:45;;;;;;;3.33;1.08;;;19.20;86.80;;;;;;5032832;28;20047;-49
2022/07/01 10:57:12;;;;;;;4.15;1.20;;;19.40;88.90;;;;;;5033372;28;20155;-51
2022/07/01 10:59:38;;;;;;;2.83;0.90;;;19.60;88.70;;;;;;5033761;28;20041;-52
2022/07/01 11:02:06;;;;;;;4.03;1.30;;;19.70;88.10;;;;;;5032419;28;20129;-55
2022/07/01 11:04:33;;;;;;;4.68;1.20;;;19.70;87.70;;;;;;5030413;28;20060;-48
2022/07/01 11:06:59;;;;;;;5.53;1.15;;;19.80;86.90;;;;;;5032832;28;20476;-52
2022/07/01 11:09:26;;;;;;;6.28;1.23;;;19.70;85.70;;;;;;5033253;28;20486;-56
2022/07/01 11:11:53;;;;;;;4.22;1.10;;;19.80;87.00;;;;;;5034053;28;20048;-56
2022/07/01 11:14:20;;;;;;;4.72;1.17;;;19.80;85.80;;;;;;5034026;28;20042;-56
2022/07/01 11:16:48;;;;;;;3.78;1.00;;;19.90;85.80;;;;;;5032326;28;20388;-56
2022/07/01 11:19:15;;;;;;;7.32;1.52;;;19.80;85.50;;;;;;5032637;28;20408;-49
2022/07/01 11:21:42;;;;;;;4.95;1.13;;;19.80;86.00;;;;;;5033733;28;20076;-55
2022/07/01 11:24:09;;;;;;;4.75;1.08;;;19.80;85.30;;;;;;5031574;28;20479;-50
2022/07/01 11:26:36;;;;;;;3.70;1.20;;;19.80;84.30;;;;;;5033655;28;20046;-50
2022/07/01 11:29:03;;;;;;;5.63;1.33;;;19.90;86.20;;;;;;5033576;28;20488;-50
2022/07/01 11:31:30;;;;;;;3.45;1.00;;;19.90;84.60;;;;;;5033745;28;20045;-46
2022/07/01 11:33:57;;;;;;;2.65;0.80;;;19.90;82.70;;;;;;5033127;28;20034;-51
2022/07/01 11:39:24;;;;;;;;;;;20.10;81.70;;;;;;5034174;28;20411;-51
2022/07/01 11:41:51;;;;;;;4.40;1.20;;;20.30;80.30;;;;;;5033896;28;19959;-52
2022/07/01 11:44:18;;;;;;;2.13;0.93;;;20.50;80.70;;;;;;5033696;28;20076;-53
2022/07/01 11:46:44;;;;;;;5.50;0.98;;;20.60;81.00;;;;;;5033690;28;20038;-56
2022/07/01 11:49:13;;;;;;;2.28;0.70;;;20.60;80.30;;;;;;5033558;28;20041;-51
2022/07/01 11:51:39;;;;;;;2.60;0.70;;;20.50;78.10;;;;;;5033586;28;20047;-47
2022/07/01 11:54:06;;;;;;;4.45;0.93;;;20.50;78.00;;;;;;5033467;28;20037;-53
2022/07/01 11:56:34;;;;;;;2.72;0.93;;;20.40;79.10;;;;;;5033494;28;20037;-53
2022/07/01 11:59:04;;;;;;;3.85;0.70;;;20.60;80.40;;;;;;5030081;28;20041;-49
2022/07/01 12:01:31;;;;;;;5.35;1.00;;;20.60;79.40;;;;;;5027437;28;20037;-53
2022/07/01 12:03:57;;;;;;;3.13;0.85;;;20.50;79.90;;;;;;5032737;28;20447;-51
2022/07/01 12:06:24;;;;;;;2.10;0.80;;;20.40;78.80;;;;;;5027105;28;20041;-52
2022/07/01 12:08:51;;;;;;;2.90;0.82;;;20.40;79.80;;;;;;5027039;28;20439;-50
2022/07/01 12:11:18;;;;;;;3.53;1.10;;;20.40;80.10;;;;;;5032013;28;20463;-57
2022/07/01 12:13:45;;;;;;;3.10;0.90;;;20.40;79.90;;;;;;5032795;28;20038;-47
2022/07/01 12:16:12;;;;;;;6.75;1.45;;;20.50;80.20;;;;;;5032348;28;20489;-59
2022/07/01 12:18:39;;;;;;;4.15;1.00;;;20.60;78.20;;;;;;5033117;28;20084;-49
2022/07/01 12:21:06;;;;;;;3.10;0.93;;;20.50;79.10;;;;;;5032664;28;20148;-54
2022/07/01 12:23:32;;;;;;;10.30;3.47;;;20.60;79.20;;;;;;5033159;28;20042;-50
2022/07/01 12:26:03;;;;;;;6.32;1.38;;;20.60;80.00;;;;;;5033597;28;20448;-51
2022/07/01 12:28:30;;;;;;;3.83;1.55;;;20.60;80.60;;;;;;5032248;28;20041;-58
2022/07/01 12:30:57;;;;;;;4.47;0.90;;;20.60;79.60;;;;;;5032019;28;20042;-53
2022/07/01 12:33:24;;;;;;;4.53;1.20;;;20.60;79.80;;;;;;5033143;28;20080;-52
2022/07/01 12:35:50;;;;;;;5.28;0.90;;;20.50;80.10;;;;;;5032229;28;20046;-56
2022/07/01 12:38:17;;;;;;;5.13;0.98;;;20.50;80.10;;;;;;5031743;28;20049;-53
2022/07/01 12:40:44;;;;;;;2.88;0.90;;;20.50;80.60;;;;;;5032615;28;20042;-50
2022/07/01 12:43:11;;;;;;;5.40;1.30;;;20.50;80.70;;;;;;5032937;28;20044;-53
2022/07/01 12:45:38;;;;;;;6.15;1.10;;;20.50;80.40;;;;;;5033321;28;20038;-53
2022/07/01 12:48:05;;;;;;;6.72;1.20;;;20.50;80.90;;;;;;5033016;28;20038;-51
2022/07/01 12:50:32;;;;;;;4.25;1.10;;;20.60;79.40;;;;;;5032894;28;20049;-55
